createdAt,value
2024-05-09T00:01:05.202Z,9.20
2024-05-09T00:03:35.433Z,9.93
2024-05-09T00:06:08.516Z,11.82
2024-05-09T00:08:38.767Z,11.02
2024-05-09T00:11:09.061Z,10.93
2024-05-09T00:13:39.263Z,9.10
2024-05-09T00:16:09.810Z,10.25
2024-05-09T00:18:39.965Z,8.65
2024-05-09T00:21:13.018Z,10.20
2024-05-09T00:23:43.213Z,11.32
2024-05-09T00:26:13.445Z,9.32
2024-05-09T00:28:43.655Z,10.10
2024-05-09T00:31:13.744Z,9.73
2024-05-09T00:33:43.929Z,11.02
2024-05-09T00:36:16.794Z,10.73
2024-05-09T00:38:47.574Z,9.68
2024-05-09T00:41:19.845Z,9.05
2024-05-09T00:43:50.186Z,10.00
2024-05-09T00:46:20.513Z,10.80
2024-05-09T00:48:50.862Z,9.93
2024-05-09T00:51:23.814Z,8.75
2024-05-09T00:53:54.018Z,10.38
2024-05-09T00:56:24.774Z,10.00
2024-05-09T00:58:55.012Z,9.25
2024-05-09T01:01:27.050Z,10.00
2024-05-09T01:03:57.636Z,11.55
2024-05-09T01:06:30.483Z,8.98
2024-05-09T01:09:00.691Z,10.13
2024-05-09T01:11:36.552Z,8.77
2024-05-09T01:14:06.871Z,11.02
2024-05-09T01:16:37.232Z,10.10
2024-05-09T01:19:07.657Z,8.23
2024-05-09T01:21:43.369Z,9.85
2024-05-09T01:24:16.089Z,9.77
2024-05-09T01:26:46.228Z,10.55
2024-05-09T01:29:16.411Z,9.30
2024-05-09T01:31:47.865Z,8.63
2024-05-09T01:34:18.033Z,8.60
2024-05-09T01:36:48.145Z,9.32
2024-05-09T01:39:20.876Z,8.52
2024-05-09T01:41:50.973Z,11.20
2024-05-09T01:44:21.198Z,9.07
2024-05-09T01:46:51.326Z,8.10
2024-05-09T01:49:21.649Z,9.07
2024-05-09T01:51:51.881Z,8.98
2024-05-09T01:54:24.641Z,8.55
2024-05-09T01:56:54.709Z,9.63
2024-05-09T01:59:24.901Z,8.43
2024-05-09T02:01:57.256Z,8.02
2024-05-09T02:04:28.230Z,10.45
2024-05-09T02:06:58.437Z,8.85
2024-05-09T02:09:31.139Z,8.73
2024-05-09T02:12:01.402Z,8.00
2024-05-09T02:14:31.785Z,8.75
2024-05-09T02:17:01.994Z,10.57
2024-05-09T02:19:32.153Z,10.70
2024-05-09T02:22:02.292Z,10.20
2024-05-09T02:24:35.014Z,10.43
2024-05-09T02:27:05.140Z,9.60
2024-05-09T02:29:35.441Z,10.82
2024-05-09T02:32:05.856Z,9.32
2024-05-09T02:34:35.964Z,10.43
2024-05-09T02:37:06.089Z,9.13
2024-05-09T02:39:36.351Z,10.40
2024-05-09T02:42:06.509Z,8.70
2024-05-09T02:44:34.011Z,8.95
2024-05-09T02:47:04.155Z,13.15
2024-05-09T02:49:31.715Z,9.07
2024-05-09T02:52:01.823Z,9.15
2024-05-09T02:54:29.276Z,8.65
2024-05-09T02:57:02.106Z,9.77
2024-05-09T02:59:29.678Z,12.57
2024-05-09T03:01:59.929Z,9.75
2024-05-09T03:04:27.525Z,9.60
2024-05-09T03:06:57.610Z,8.68
2024-05-09T03:09:25.062Z,8.05
2024-05-09T03:11:55.339Z,8.38
2024-05-09T03:14:25.911Z,8.80
2024-05-09T03:16:56.101Z,8.20
2024-05-09T03:19:23.695Z,8.70
2024-05-09T03:21:53.848Z,9.10
2024-05-09T03:24:21.349Z,9.45
2024-05-09T03:26:51.526Z,9.60
2024-05-09T03:29:19.133Z,8.82
2024-05-09T03:31:52.097Z,9.27
2024-05-09T03:34:19.639Z,10.93
2024-05-09T03:36:49.760Z,9.52
2024-05-09T03:39:19.976Z,9.07
2024-05-09T03:41:50.090Z,9.43
2024-05-09T03:44:20.231Z,8.07
2024-05-09T03:46:53.025Z,9.40
2024-05-09T03:49:22.449Z,9.18
2024-05-09T03:51:52.705Z,10.55
2024-05-09T03:54:20.322Z,8.93
2024-05-09T03:56:50.421Z,9.00
2024-05-09T03:59:17.884Z,8.68
2024-05-09T04:01:48.147Z,8.70
2024-05-09T04:04:18.352Z,7.80
2024-05-09T04:06:48.467Z,7.38
2024-05-09T04:09:15.958Z,8.13
2024-05-09T04:11:46.195Z,8.52
2024-05-09T04:14:13.814Z,9.15
2024-05-09T04:16:44.089Z,8.70
2024-05-09T04:19:11.753Z,9.43
2024-05-09T04:21:44.609Z,8.52
2024-05-09T04:24:12.112Z,8.93
2024-05-09T04:26:42.247Z,8.27
2024-05-09T04:29:09.754Z,7.40
2024-05-09T04:31:39.892Z,9.05
2024-05-09T04:34:07.597Z,8.40
2024-05-09T04:36:39.654Z,9.48
2024-05-09T04:39:11.044Z,8.45
2024-05-09T04:41:41.170Z,8.43
2024-05-09T04:44:08.758Z,9.15
2024-05-09T04:46:39.697Z,9.52
2024-05-09T04:49:07.301Z,8.90
2024-05-09T04:51:38.114Z,9.23
2024-05-09T04:54:08.317Z,9.25
2024-05-09T04:56:41.177Z,8.32
2024-05-09T04:59:08.747Z,7.68
2024-05-09T05:01:38.921Z,8.73
2024-05-09T05:04:06.470Z,8.82
2024-05-09T05:06:36.642Z,8.43
2024-05-09T05:09:04.283Z,9.30
2024-05-09T05:11:34.467Z,7.57
2024-05-09T05:14:04.808Z,7.00
2024-05-09T05:16:34.908Z,11.02
2024-05-09T05:19:02.510Z,8.63
2024-05-09T05:21:32.771Z,8.98
2024-05-09T05:24:00.282Z,8.60
2024-05-09T05:26:30.483Z,10.00
2024-05-09T05:28:58.110Z,9.48
2024-05-09T05:31:30.893Z,7.15
2024-05-09T05:33:58.491Z,8.10
2024-05-09T05:36:28.535Z,8.15
2024-05-09T05:38:56.100Z,7.45
2024-05-09T05:41:26.258Z,9.15
2024-05-09T05:43:53.792Z,9.68
2024-05-09T05:46:23.935Z,9.98
2024-05-09T05:48:54.266Z,8.38
2024-05-09T05:51:24.494Z,7.68
2024-05-09T05:53:52.370Z,7.22
2024-05-09T05:56:22.534Z,7.93
2024-05-09T05:58:50.323Z,8.80
2024-05-09T06:01:20.482Z,7.18
2024-05-09T06:03:48.096Z,8.43
2024-05-09T06:06:20.854Z,9.60
2024-05-09T06:08:48.459Z,10.75
2024-05-09T06:11:18.688Z,10.70
2024-05-09T06:13:46.293Z,10.15
2024-05-09T06:16:16.441Z,8.65
2024-05-09T06:18:44.221Z,8.52
2024-05-09T06:21:14.613Z,8.52
2024-05-09T06:23:48.702Z,9.30
2024-05-09T06:26:18.963Z,12.67
2024-05-09T06:28:46.576Z,10.23
2024-05-09T06:31:16.806Z,11.80
2024-05-09T06:33:44.539Z,9.93
2024-05-09T06:36:14.699Z,9.15
2024-05-09T06:38:42.405Z,10.40
2024-05-09T06:41:15.308Z,11.75
2024-05-09T06:43:43.002Z,10.52
2024-05-09T06:46:13.096Z,12.18
2024-05-09T06:48:40.943Z,10.93
2024-05-09T06:51:11.254Z,11.05
2024-05-09T06:53:39.975Z,10.68
2024-05-09T06:56:10.712Z,10.82
2024-05-09T06:58:40.923Z,11.15
2024-05-09T07:01:11.114Z,12.75
2024-05-09T07:03:38.722Z,10.48
2024-05-09T07:06:09.096Z,12.32
2024-05-09T07:08:36.796Z,11.10
2024-05-09T07:11:07.079Z,11.98
2024-05-09T07:13:34.593Z,9.75
2024-05-09T07:16:07.569Z,12.32
2024-05-09T07:18:35.298Z,13.00
2024-05-09T07:21:05.618Z,10.45
2024-05-09T07:23:33.178Z,10.82
2024-05-09T07:26:03.456Z,10.60
2024-05-09T07:28:30.992Z,11.13
2024-05-09T07:31:01.092Z,9.65
2024-05-09T07:33:31.423Z,11.27
2024-05-09T07:36:01.616Z,10.30
2024-05-09T07:38:29.167Z,11.30
2024-05-09T07:40:59.511Z,11.77
2024-05-09T07:43:28.013Z,9.82
2024-05-09T07:50:00.057Z,11.27
2024-05-09T07:53:52.300Z,12.38
2024-05-09T07:56:26.098Z,9.63
2024-05-09T07:58:54.513Z,9.40
2024-05-09T08:01:26.620Z,11.85
2024-05-09T08:03:54.925Z,11.15
2024-05-09T08:06:28.249Z,11.90
2024-05-09T08:08:56.046Z,11.00
2024-05-09T08:11:27.012Z,11.23
2024-05-09T08:13:55.099Z,15.40
2024-05-09T08:16:25.279Z,12.50
2024-05-09T08:18:52.939Z,15.43
2024-05-09T08:21:23.191Z,11.60
2024-05-09T08:23:53.278Z,11.57
2024-05-09T08:26:23.463Z,9.68
2024-05-09T08:28:50.971Z,9.55
2024-05-09T08:31:21.209Z,13.82
2024-05-09T08:33:50.596Z,9.63
2024-05-09T08:36:20.833Z,10.60
2024-05-09T08:38:48.344Z,9.27
2024-05-09T08:41:21.053Z,9.32
2024-05-09T08:43:48.616Z,11.05
2024-05-09T08:46:19.600Z,8.07
2024-05-09T08:48:48.997Z,7.57
2024-05-09T08:51:19.439Z,9.40
2024-05-09T08:53:47.145Z,9.75
2024-05-09T08:56:18.326Z,7.53
2024-05-09T08:58:52.087Z,7.30
2024-05-09T09:01:22.507Z,6.88
2024-05-09T09:03:50.315Z,10.27
2024-05-09T09:06:24.940Z,7.88
2024-05-09T09:08:53.413Z,6.25
2024-05-09T09:11:23.559Z,7.15
2024-05-09T09:13:53.706Z,6.57
2024-05-09T09:16:23.900Z,7.88
2024-05-09T09:18:56.152Z,7.07
2024-05-09T09:21:26.402Z,6.13
2024-05-09T09:23:53.970Z,5.93
2024-05-09T09:26:24.310Z,5.82
2024-05-09T09:28:54.478Z,5.78
2024-05-09T09:31:24.647Z,5.18
2024-05-09T09:33:53.212Z,4.93
2024-05-09T09:36:23.412Z,5.00
2024-05-09T09:38:52.270Z,6.45
2024-05-09T09:41:26.469Z,6.35
2024-05-09T09:43:58.093Z,6.47
2024-05-09T09:46:29.632Z,6.50
2024-05-09T09:48:57.448Z,5.20
2024-05-09T09:51:28.666Z,4.75
2024-05-09T09:53:56.724Z,4.28
2024-05-09T09:56:27.302Z,4.28
2024-05-09T09:58:58.248Z,5.72
2024-05-09T10:01:28.473Z,3.80
2024-05-09T10:03:56.288Z,3.35
2024-05-09T10:06:27.194Z,5.22
2024-05-09T10:08:55.181Z,5.47
2024-05-09T10:11:25.566Z,4.72
2024-05-09T10:13:53.786Z,3.88
2024-05-09T10:16:27.604Z,3.58
2024-05-09T10:18:55.412Z,4.60
2024-05-09T10:21:25.645Z,5.57
2024-05-09T10:23:59.889Z,3.97
2024-05-09T10:26:34.641Z,3.25
2024-05-09T10:29:11.290Z,4.15
2024-05-09T10:31:44.589Z,4.43
2024-05-09T10:34:18.238Z,4.80
2024-05-09T10:36:48.714Z,5.03
2024-05-09T10:39:16.270Z,6.25
2024-05-09T10:41:46.343Z,4.05
2024-05-09T10:44:15.555Z,4.35
2024-05-09T10:46:50.391Z,4.10
2024-05-09T10:49:18.201Z,3.33
2024-05-09T10:51:48.859Z,4.82
2024-05-09T10:54:16.456Z,4.28
2024-05-09T10:56:46.575Z,5.22
2024-05-09T10:59:14.127Z,5.43
2024-05-09T11:01:44.583Z,5.55
2024-05-09T11:04:15.087Z,5.55
2024-05-09T11:06:45.592Z,5.53
2024-05-09T11:09:13.146Z,7.75
2024-05-09T11:11:43.420Z,5.63
2024-05-09T11:14:13.890Z,4.75
2024-05-09T11:16:44.061Z,5.13
2024-05-09T11:19:15.660Z,3.80
2024-05-09T11:21:46.054Z,6.45
2024-05-09T11:24:13.634Z,3.63
2024-05-09T11:26:43.749Z,6.95
2024-05-09T11:29:11.381Z,3.08
2024-05-09T11:31:48.663Z,4.47
2024-05-09T11:34:19.107Z,3.03
2024-05-09T11:36:49.447Z,4.88
2024-05-09T11:39:16.971Z,5.28
2024-05-09T11:41:47.102Z,3.00
2024-05-09T11:44:14.658Z,3.80
2024-05-09T11:46:44.784Z,3.15
2024-05-09T11:49:12.695Z,4.55
2024-05-09T11:51:45.740Z,3.30
2024-05-09T11:54:13.291Z,5.80
2024-05-09T11:56:43.461Z,2.88
2024-05-09T11:59:11.563Z,2.75
2024-05-09T12:01:41.787Z,2.75
2024-05-09T12:04:09.894Z,2.95
2024-05-09T12:06:40.203Z,2.90
2024-05-09T12:09:10.346Z,3.83
2024-05-09T12:11:40.542Z,2.72
2024-05-09T12:14:08.309Z,6.80
2024-05-09T12:16:38.734Z,2.95
2024-05-09T12:19:06.449Z,4.03
2024-05-09T12:21:36.653Z,3.92
2024-05-09T12:24:04.291Z,3.60
2024-05-09T12:26:37.123Z,2.75
2024-05-09T12:29:04.678Z,3.70
2024-05-09T12:31:34.878Z,3.10
2024-05-09T12:34:02.545Z,4.40
2024-05-09T12:36:33.965Z,3.15
2024-05-09T12:39:01.592Z,6.70
2024-05-09T12:41:31.674Z,3.78
2024-05-09T12:44:01.809Z,3.75
2024-05-09T12:46:32.184Z,3.30
2024-05-09T12:48:59.968Z,3.58
2024-05-09T12:51:31.134Z,3.10
2024-05-09T12:53:58.736Z,4.38
2024-05-09T12:56:28.956Z,3.83
2024-05-09T12:58:58.075Z,3.60
2024-05-09T13:01:30.997Z,4.13
2024-05-09T13:03:59.957Z,4.30
2024-05-09T13:06:38.452Z,7.82
2024-05-09T13:09:06.040Z,4.72
2024-05-09T13:11:36.234Z,5.75
2024-05-09T13:14:03.879Z,7.18
2024-05-09T13:16:36.704Z,5.38
2024-05-09T13:19:04.350Z,4.30
2024-05-09T13:21:34.608Z,4.18
2024-05-09T13:24:02.191Z,6.03
2024-05-09T13:26:32.422Z,3.35
2024-05-09T13:28:59.967Z,2.97
2024-05-09T13:31:30.153Z,3.58
2024-05-09T13:34:00.473Z,3.03
2024-05-09T13:36:30.804Z,2.63
2024-05-09T13:38:59.265Z,3.97
2024-05-09T13:41:29.413Z,4.07
2024-05-09T13:43:59.527Z,4.22
2024-05-09T13:46:27.129Z,2.55
2024-05-09T13:48:57.345Z,3.25
2024-05-09T13:51:27.545Z,5.45
2024-05-09T13:53:59.324Z,2.45
2024-05-09T13:56:26.841Z,4.05
2024-05-09T13:58:57.436Z,2.40
2024-05-09T14:01:25.643Z,4.65
2024-05-09T14:03:56.083Z,3.40
2024-05-09T14:06:23.780Z,2.53
2024-05-09T14:08:56.512Z,2.78
2024-05-09T14:11:24.027Z,2.85
2024-05-09T14:13:54.176Z,3.08
2024-05-09T14:16:21.759Z,2.50
2024-05-09T14:18:52.168Z,3.10
2024-05-09T14:21:19.788Z,3.03
2024-05-09T14:23:49.976Z,2.92
2024-05-09T14:26:20.111Z,3.50
2024-05-09T14:28:59.499Z,2.15
2024-05-09T14:31:27.073Z,2.78
2024-05-09T14:33:57.522Z,3.45
2024-05-09T14:36:25.208Z,3.13
2024-05-09T14:38:55.359Z,3.83
2024-05-09T14:41:22.833Z,2.40
2024-05-09T14:43:52.931Z,1.88
2024-05-09T14:46:23.220Z,3.58
2024-05-09T14:48:54.175Z,3.70
2024-05-09T14:51:21.695Z,3.97
2024-05-09T14:53:51.863Z,2.15
2024-05-09T14:56:19.395Z,2.35
2024-05-09T14:58:49.561Z,2.40
2024-05-09T15:01:17.106Z,2.92
2024-05-09T15:03:50.017Z,2.20
2024-05-09T15:06:18.045Z,3.90
2024-05-09T15:08:48.241Z,2.65
2024-05-09T15:11:15.859Z,4.03
2024-05-09T15:13:46.496Z,3.53
2024-05-09T15:16:14.089Z,3.50
2024-05-09T15:18:44.482Z,2.78
2024-05-09T15:21:14.834Z,3.42
2024-05-09T15:23:45.071Z,2.50
2024-05-09T15:26:12.708Z,2.50
2024-05-09T15:28:43.880Z,2.30
2024-05-09T15:31:11.473Z,3.80
2024-05-09T15:33:42.713Z,3.30
2024-05-09T15:36:10.474Z,2.92
2024-05-09T15:38:43.214Z,3.80
2024-05-09T15:41:10.695Z,3.65
2024-05-09T15:43:40.895Z,2.40
2024-05-09T15:46:08.606Z,2.65
2024-05-09T15:48:41.122Z,2.20
2024-05-09T15:51:09.510Z,6.90
2024-05-09T15:53:39.699Z,2.88
2024-05-09T15:56:10.967Z,3.65
2024-05-09T15:58:41.164Z,2.38
2024-05-09T16:01:08.812Z,3.40
2024-05-09T16:03:39.266Z,2.20
2024-05-09T16:06:06.890Z,2.30
2024-05-09T16:08:37.009Z,3.03
2024-05-09T16:11:04.801Z,2.30
2024-05-09T16:13:37.802Z,2.05
2024-05-09T16:16:05.729Z,2.30
2024-05-09T16:18:35.948Z,3.97
2024-05-09T16:21:03.477Z,3.47
2024-05-09T16:23:34.608Z,3.42
2024-05-09T16:26:02.139Z,3.30
2024-05-09T16:28:32.390Z,3.58
2024-05-09T16:31:02.696Z,2.17
2024-05-09T16:33:33.026Z,2.88
2024-05-09T16:36:00.862Z,3.17
2024-05-09T16:38:30.950Z,3.42
2024-05-09T16:40:58.544Z,2.83
2024-05-09T16:43:28.739Z,2.22
2024-05-09T16:45:56.363Z,2.67
2024-05-09T16:48:29.232Z,3.22
2024-05-09T16:50:56.755Z,2.65
2024-05-09T16:53:27.758Z,2.35
2024-05-09T16:55:55.647Z,3.47
2024-05-09T16:58:26.651Z,3.30
2024-05-09T17:00:54.357Z,2.60
2024-05-09T17:03:24.902Z,1.88
2024-05-09T17:05:55.268Z,2.58
2024-05-09T17:08:25.569Z,2.58
2024-05-09T17:10:53.277Z,4.88
2024-05-09T17:13:23.776Z,2.30
2024-05-09T17:15:54.007Z,2.38
2024-05-09T17:18:24.171Z,2.33
2024-05-09T17:20:52.529Z,2.63
2024-05-09T17:23:25.389Z,3.83
2024-05-09T17:25:55.525Z,4.30
2024-05-09T17:28:23.198Z,2.20
2024-05-09T17:30:53.412Z,2.47
2024-05-09T17:33:21.012Z,2.72
2024-05-09T17:35:52.495Z,3.00
2024-05-09T17:38:23.668Z,1.50
2024-05-09T17:40:54.672Z,1.92
2024-05-09T17:43:22.584Z,3.55
2024-05-09T17:45:53.017Z,2.90
2024-05-09T17:48:20.902Z,3.58
2024-05-09T17:50:51.557Z,1.90
2024-05-09T17:53:20.128Z,2.08
2024-05-09T17:55:54.005Z,4.63
2024-05-09T17:58:21.845Z,2.20
2024-05-09T18:00:52.381Z,4.50
2024-05-09T18:03:20.173Z,3.30
2024-05-09T18:05:50.445Z,4.20
2024-05-09T18:08:18.046Z,2.25
2024-05-09T18:10:48.231Z,2.25
2024-05-09T18:13:18.565Z,4.65
2024-05-09T18:15:48.841Z,2.30
2024-05-09T18:18:16.595Z,3.40
2024-05-09T18:20:47.196Z,3.05
2024-05-09T18:23:16.759Z,3.13
2024-05-09T18:25:48.455Z,3.33
2024-05-09T18:28:18.812Z,2.55
2024-05-09T18:30:49.035Z,2.10
2024-05-09T18:33:16.912Z,4.60
2024-05-09T18:35:47.660Z,7.05
2024-05-09T18:38:15.313Z,4.10
2024-05-09T18:40:48.494Z,3.38
2024-05-09T18:43:28.756Z,3.90
2024-05-09T18:46:06.293Z,2.80
2024-05-09T18:48:34.107Z,4.88
2024-05-09T18:51:05.527Z,2.80
2024-05-09T18:53:33.592Z,3.45
2024-05-09T18:56:03.858Z,6.30
2024-05-09T18:58:34.013Z,3.35
2024-05-09T19:01:04.503Z,3.80
2024-05-09T19:03:32.446Z,5.38
2024-05-09T19:06:02.869Z,9.63
2024-05-09T19:08:30.410Z,4.57
2024-05-09T19:11:02.044Z,5.38
2024-05-09T19:13:30.030Z,3.45
2024-05-09T19:16:03.320Z,3.55
2024-05-09T19:18:31.185Z,4.50
2024-05-09T19:21:01.584Z,4.25
2024-05-09T19:23:29.318Z,7.28
2024-05-09T19:25:59.495Z,4.10
2024-05-09T19:28:27.065Z,4.50
2024-05-09T19:30:57.379Z,4.10
2024-05-09T19:33:27.566Z,3.75
2024-05-09T19:35:57.738Z,3.03
2024-05-09T19:38:25.243Z,4.43
2024-05-09T19:40:55.604Z,4.35
2024-05-09T19:43:23.361Z,3.83
2024-05-09T19:45:53.645Z,3.58
2024-05-09T19:48:21.455Z,4.50
2024-05-09T19:50:54.287Z,4.15
2024-05-09T19:53:21.825Z,3.83
2024-05-09T19:55:51.959Z,4.63
2024-05-09T19:58:19.593Z,2.95
2024-05-09T20:00:49.886Z,2.65
2024-05-09T20:03:17.680Z,4.57
2024-05-09T20:05:48.809Z,6.93
2024-05-09T20:08:19.719Z,2.97
2024-05-09T20:10:50.340Z,2.95
2024-05-09T20:13:18.287Z,2.85
2024-05-09T20:15:48.872Z,2.65
2024-05-09T20:18:18.204Z,2.90
2024-05-09T20:20:51.652Z,4.32
2024-05-09T20:23:23.555Z,4.57
2024-05-09T20:25:53.705Z,3.67
2024-05-09T20:28:21.370Z,4.00
2024-05-09T20:30:51.615Z,6.97
2024-05-09T20:33:19.139Z,4.95
2024-05-09T20:35:49.256Z,3.15
2024-05-09T20:38:16.741Z,4.18
2024-05-09T20:40:49.652Z,5.57
2024-05-09T20:43:17.387Z,3.67
2024-05-09T20:45:47.629Z,3.25
2024-05-09T20:48:15.274Z,2.38
2024-05-09T20:50:45.550Z,3.33
2024-05-09T20:53:14.265Z,4.50
2024-05-09T20:55:45.624Z,2.50
2024-05-09T20:58:16.002Z,3.88
2024-05-09T21:00:46.834Z,3.17
2024-05-09T21:03:16.515Z,3.42
2024-05-09T21:05:48.404Z,3.35
2024-05-09T21:08:16.443Z,4.03
2024-05-09T21:10:46.647Z,2.63
2024-05-09T21:13:16.867Z,2.55
2024-05-09T21:15:47.196Z,4.90
2024-05-09T21:18:14.852Z,2.35
2024-05-09T21:20:45.105Z,3.30
2024-05-09T21:23:12.635Z,2.70
2024-05-09T21:25:42.733Z,4.47
2024-05-09T21:28:10.291Z,4.30
2024-05-09T21:30:43.569Z,4.03
2024-05-09T21:33:13.166Z,3.72
2024-05-09T21:35:45.101Z,3.90
2024-05-09T21:38:16.295Z,3.55
2024-05-09T21:40:44.613Z,4.25
2024-05-09T21:43:15.583Z,3.60
2024-05-09T21:45:45.833Z,3.42
2024-05-09T21:48:16.480Z,3.72
2024-05-09T21:50:44.013Z,3.40
2024-05-09T21:53:14.351Z,4.07
2024-05-09T21:55:42.068Z,3.63
2024-05-09T21:58:12.399Z,4.28
2024-05-09T22:00:40.757Z,4.63
2024-05-09T22:03:14.166Z,3.85
2024-05-09T22:05:44.291Z,4.10
2024-05-09T22:08:14.873Z,3.33
2024-05-09T22:10:42.652Z,4.10
2024-05-09T22:13:13.445Z,4.05
2024-05-09T22:15:41.269Z,3.95
2024-05-09T22:18:14.538Z,6.25
2024-05-09T22:20:45.342Z,3.65
2024-05-09T22:23:16.887Z,3.38
2024-05-09T22:25:44.479Z,3.10
2024-05-09T22:28:16.138Z,5.28
2024-05-09T22:30:46.099Z,5.00
2024-05-09T22:33:19.499Z,4.45
2024-05-09T22:35:48.045Z,3.95
2024-05-09T22:38:18.219Z,4.97
2024-05-09T22:40:48.993Z,4.72
2024-05-09T22:43:24.890Z,4.85
2024-05-09T22:45:54.373Z,4.50
2024-05-09T22:48:27.772Z,4.43
2024-05-09T22:50:55.574Z,3.35
2024-05-09T22:53:26.522Z,2.83
2024-05-09T22:55:54.355Z,4.05
2024-05-09T22:58:24.582Z,5.60
2024-05-09T23:00:52.374Z,5.18
2024-05-09T23:03:23.039Z,7.25
2024-05-09T23:05:53.345Z,4.25
2024-05-09T23:08:23.440Z,5.90
2024-05-09T23:10:51.146Z,3.75
2024-05-09T23:13:21.419Z,6.05
2024-05-09T23:15:49.031Z,4.05
2024-05-09T23:18:19.309Z,6.72
2024-05-09T23:20:46.846Z,7.32
2024-05-09T23:23:19.626Z,4.93
2024-05-09T23:25:47.142Z,4.15
2024-05-09T23:28:17.243Z,5.18
2024-05-09T23:30:44.866Z,4.55
2024-05-09T23:33:15.643Z,3.95
2024-05-09T23:35:44.189Z,4.22
2024-05-09T23:38:14.742Z,3.97
2024-05-09T23:40:45.038Z,3.53
2024-05-09T23:43:15.395Z,3.90
2024-05-09T23:45:43.233Z,5.22
2024-05-09T23:48:13.821Z,4.60
2024-05-09T23:50:41.851Z,4.35
2024-05-09T23:53:14.330Z,4.95
2024-05-09T23:55:44.535Z,4.05
2024-05-09T23:58:14.873Z,3.80
